岩国 の空港の天気 - METARとTAF

岩国飛行場 ( RJOI / IWK ) - 山口県岩国市
飛行場実況気象(Metar)
観測時間10/24 17:55 JST (10/24 08:55 UTC)
風向・風速西 2m/s
視程10km以上
天気現象
少しの雲 雲底高度 910m
気温15℃
湿度45%
気圧1015.3hPa
METARRJOI 240855Z 27004KT 9999 FEW030 15/03 A2998 RMK SLP153 T01500033 53020
過去の天気等 Google飛行場航空写真 Wunderground天気予報

過去48時間のMETAR

飛行場予報(TAF)
発表時間: -
24日14時 JST ~ 24日18時 JST に一時的に
風向・風速西北西 7m/s 瞬間風速 11m/s
24日21時 JST から
風向・風速西北西 4m/s
視程10km以上
少しの雲 雲底高度 610m
少しの雲 雲底高度 1520m
25日3時 JST から
風向・風速北西 3m/s
視程10km以上
少しの雲 雲底高度 610m
全天の4割程度の雲 雲底高度 1520m
25日9時 JST ~ 25日11時 JST に徐々に
風向・風速北東 3m/s
視程10km以上
少しの雲 雲底高度 610m
全天の4割程度の雲 雲底高度 1520m
TAF RJOI 2405/2505 29012KT 9999 FEW030 FEW050 QNH2991INS
TEMPO 2405/2409 29014G22KT
FM241200 30008KT 9999 FEW020 FEW050 QNH3000INS
FM241800 31006KT 9999 FEW020 SCT050 QNH3002INS
BECMG 2500/2502 04006KT 9999 FEW020 SCT050 QNH2999INS T19/2405Z T10/2421Z
日本の空港のMETAR・TAFへのリンク

RJTT 東京国際空港
RJAA 新東京国際空港
RJBB 関西国際空港
RJOO 大阪空港
RJGG 中部国際空港
RJCC 新千歳空港
RJFF 福岡空港
ROAH 那覇空港


RJEC 旭川空港
RJCH 函館空港
RJCK 釧路空港
RJCM 女満別空港
RJCB 帯広空港
RJSA 青森空港
RJSS 仙台空港
RJSK 秋田空港
RJSF 福島空港
RJAH 茨城空港
RJSN 新潟空港
RJNT 富山空港
RJNK 小松飛行場
RJNS 静岡空港
RJOH 美保飛行場
RJOC 出雲空港
RJOB 岡山空港
RJOA 広島空港
RJOI 岩国飛行場
RJOT 高松空港
RJOM 松山空港
RJOK 高知空港
RJFR 北九州空港
RJFT 熊本空港
RJFU 長崎空港
RJFS 佐賀空港
RJFO 大分空港
RJFM 宮崎空港
RJFK 鹿児島空港
ROIG 石垣島空港
RJTY 横田飛行場
ROTM 普天間飛行場
RODN 嘉手納飛行場